sensor_id;sensor_type;location;lat;lon;timestamp;temperature;humidity
2913;DHT22;1466;48.778;9.166;2022-09-09T00:01:30;19.40;93.40
2913;DHT22;1466;48.778;9.166;2022-09-09T00:03:59;19.50;93.40
2913;DHT22;1466;48.778;9.166;2022-09-09T00:06:31;19.40;93.30
2913;DHT22;1466;48.778;9.166;2022-09-09T00:12:05;19.40;93.40
2913;DHT22;1466;48.778;9.166;2022-09-09T00:17:15;19.40;93.40
2913;DHT22;1466;48.778;9.166;2022-09-09T00:20:36;19.30;93.40
2913;DHT22;1466;48.778;9.166;2022-09-09T00:22:36;19.30;93.40
2913;DHT22;1466;48.778;9.166;2022-09-09T00:25:22;19.20;93.50
2913;DHT22;1466;48.778;9.166;2022-09-09T00:27:50;19.20;93.60
2913;DHT22;1466;48.778;9.166;2022-09-09T00:30:19;19.20;93.60
2913;DHT22;1466;48.778;9.166;2022-09-09T00:32:54;19.20;93.50
2913;DHT22;1466;48.778;9.166;2022-09-09T00:35:27;19.20;93.60
2913;DHT22;1466;48.778;9.166;2022-09-09T00:37:58;19.20;93.70
2913;DHT22;1466;48.778;9.166;2022-09-09T00:43:21;19.20;93.70
2913;DHT22;1466;48.778;9.166;2022-09-09T00:54:12;19.40;93.40
2913;DHT22;1466;48.778;9.166;2022-09-09T00:57:14;19.40;93.40
2913;DHT22;1466;48.778;9.166;2022-09-09T01:00:15;19.30;93.40
2913;DHT22;1466;48.778;9.166;2022-09-09T01:11:24;19.50;93.20
2913;DHT22;1466;48.778;9.166;2022-09-09T01:14:01;19.50;93.20
2913;DHT22;1466;48.778;9.166;2022-09-09T01:16:30;19.50;93.20
2913;DHT22;1466;48.778;9.166;2022-09-09T01:18:57;19.50;93.10
2913;DHT22;1466;48.778;9.166;2022-09-09T01:22:01;19.50;93.00
2913;DHT22;1466;48.778;9.166;2022-09-09T01:27:05;19.50;93.00
2913;DHT22;1466;48.778;9.166;2022-09-09T01:29:32;19.50;93.00
2913;DHT22;1466;48.778;9.166;2022-09-09T01:32:35;19.50;93.00
2913;DHT22;1466;48.778;9.166;2022-09-09T01:34:48;19.50;93.00
2913;DHT22;1466;48.778;9.166;2022-09-09T01:37:15;19.50;92.90
2913;DHT22;1466;48.778;9.166;2022-09-09T01:39:42;19.50;92.90
2913;DHT22;1466;48.778;9.166;2022-09-09T01:42:11;19.50;93.00
2913;DHT22;1466;48.778;9.166;2022-09-09T01:44:38;19.50;92.90
2913;DHT22;1466;48.778;9.166;2022-09-09T01:47:04;19.50;92.80
2913;DHT22;1466;48.778;9.166;2022-09-09T01:49:30;19.50;92.90
2913;DHT22;1466;48.778;9.166;2022-09-09T01:51:58;19.40;92.90
2913;DHT22;1466;48.778;9.166;2022-09-09T01:54:27;19.40;92.90
2913;DHT22;1466;48.778;9.166;2022-09-09T01:59:54;19.40;93.00
2913;DHT22;1466;48.778;9.166;2022-09-09T02:05:17;19.40;93.00
2913;DHT22;1466;48.778;9.166;2022-09-09T02:07:51;19.40;93.20
2913;DHT22;1466;48.778;9.166;2022-09-09T02:10:21;19.40;93.00
2913;DHT22;1466;48.778;9.166;2022-09-09T02:12:53;19.40;93.10
2913;DHT22;1466;48.778;9.166;2022-09-09T02:15:30;19.40;93.00
2913;DHT22;1466;48.778;9.166;2022-09-09T02:17:58;19.40;93.00
2913;DHT22;1466;48.778;9.166;2022-09-09T02:20:28;19.40;93.10
2913;DHT22;1466;48.778;9.166;2022-09-09T02:22:56;19.40;93.20
2913;DHT22;1466;48.778;9.166;2022-09-09T02:25:25;19.30;93.20
2913;DHT22;1466;48.778;9.166;2022-09-09T02:27:51;19.30;93.40
2913;DHT22;1466;48.778;9.166;2022-09-09T02:30:18;19.30;93.30
2913;DHT22;1466;48.778;9.166;2022-09-09T02:32:45;19.40;93.40
2913;DHT22;1466;48.778;9.166;2022-09-09T02:35:14;19.40;93.30
2913;DHT22;1466;48.778;9.166;2022-09-09T02:37:42;19.40;93.40
2913;DHT22;1466;48.778;9.166;2022-09-09T02:40:10;19.40;93.30
2913;DHT22;1466;48.778;9.166;2022-09-09T02:42:47;19.30;93.40
2913;DHT22;1466;48.778;9.166;2022-09-09T02:45:17;19.40;93.50
2913;DHT22;1466;48.778;9.166;2022-09-09T02:50:17;19.40;93.40
2913;DHT22;1466;48.778;9.166;2022-09-09T02:53:07;19.40;93.50
2913;DHT22;1466;48.778;9.166;2022-09-09T02:55:50;19.30;93.50
2913;DHT22;1466;48.778;9.166;2022-09-09T02:58:20;19.20;93.70
2913;DHT22;1466;48.778;9.166;2022-09-09T03:00:48;19.10;93.80
2913;DHT22;1466;48.778;9.166;2022-09-09T03:03:14;19.10;93.80
2913;DHT22;1466;48.778;9.166;2022-09-09T03:05:42;19.10;94.00
2913;DHT22;1466;48.778;9.166;2022-09-09T03:08:07;19.10;94.00
2913;DHT22;1466;48.778;9.166;2022-09-09T03:10:33;19.10;94.10
2913;DHT22;1466;48.778;9.166;2022-09-09T03:13:00;19.10;94.10
2913;DHT22;1466;48.778;9.166;2022-09-09T03:15:26;19.10;94.10
2913;DHT22;1466;48.778;9.166;2022-09-09T03:17:57;19.00;94.10
2913;DHT22;1466;48.778;9.166;2022-09-09T03:20:27;19.00;94.30
2913;DHT22;1466;48.778;9.166;2022-09-09T03:22:54;19.00;94.30
2913;DHT22;1466;48.778;9.166;2022-09-09T03:25:20;19.00;94.40
2913;DHT22;1466;48.778;9.166;2022-09-09T03:27:48;19.00;94.30
2913;DHT22;1466;48.778;9.166;2022-09-09T03:30:14;19.00;94.30
2913;DHT22;1466;48.778;9.166;2022-09-09T03:32:41;19.00;94.30
2913;DHT22;1466;48.778;9.166;2022-09-09T03:35:06;19.00;94.40
2913;DHT22;1466;48.778;9.166;2022-09-09T03:37:32;18.90;94.40
2913;DHT22;1466;48.778;9.166;2022-09-09T03:39:58;18.90;94.90
2913;DHT22;1466;48.778;9.166;2022-09-09T03:42:24;18.90;94.60
2913;DHT22;1466;48.778;9.166;2022-09-09T03:44:50;18.90;94.60
2913;DHT22;1466;48.778;9.166;2022-09-09T03:47:20;19.00;94.70
2913;DHT22;1466;48.778;9.166;2022-09-09T03:49:47;19.10;94.60
2913;DHT22;1466;48.778;9.166;2022-09-09T03:52:14;19.00;94.60
2913;DHT22;1466;48.778;9.166;2022-09-09T03:54:39;18.90;94.70
2913;DHT22;1466;48.778;9.166;2022-09-09T03:57:06;18.90;94.80
2913;DHT22;1466;48.778;9.166;2022-09-09T03:59:32;18.90;94.80
2913;DHT22;1466;48.778;9.166;2022-09-09T04:01:57;18.90;94.80
2913;DHT22;1466;48.778;9.166;2022-09-09T04:04:24;18.90;94.80
2913;DHT22;1466;48.778;9.166;2022-09-09T04:06:51;18.90;94.80
2913;DHT22;1466;48.778;9.166;2022-09-09T04:09:17;18.90;94.90
2913;DHT22;1466;48.778;9.166;2022-09-09T04:11:42;18.90;94.90
2913;DHT22;1466;48.778;9.166;2022-09-09T04:14:08;18.90;94.80
2913;DHT22;1466;48.778;9.166;2022-09-09T04:16:34;19.00;95.00
2913;DHT22;1466;48.778;9.166;2022-09-09T04:19:03;19.00;94.90
2913;DHT22;1466;48.778;9.166;2022-09-09T04:21:30;19.00;94.90
2913;DHT22;1466;48.778;9.166;2022-09-09T04:23:55;18.90;94.90
2913;DHT22;1466;48.778;9.166;2022-09-09T04:26:21;18.90;94.90
2913;DHT22;1466;48.778;9.166;2022-09-09T04:28:47;18.90;95.10
2913;DHT22;1466;48.778;9.166;2022-09-09T04:31:19;18.80;95.10
2913;DHT22;1466;48.778;9.166;2022-09-09T04:33:47;18.80;95.10
2913;DHT22;1466;48.778;9.166;2022-09-09T04:36:13;18.80;95.50
2913;DHT22;1466;48.778;9.166;2022-09-09T04:38:39;18.70;95.20
2913;DHT22;1466;48.778;9.166;2022-09-09T04:41:05;18.70;95.30
2913;DHT22;1466;48.778;9.166;2022-09-09T04:43:31;18.70;95.30
2913;DHT22;1466;48.778;9.166;2022-09-09T04:45:56;18.70;95.20
2913;DHT22;1466;48.778;9.166;2022-09-09T04:48:23;18.70;95.20
2913;DHT22;1466;48.778;9.166;2022-09-09T04:51:03;18.70;95.30
2913;DHT22;1466;48.778;9.166;2022-09-09T04:53:30;18.60;95.30
2913;DHT22;1466;48.778;9.166;2022-09-09T04:56:14;18.60;95.50
2913;DHT22;1466;48.778;9.166;2022-09-09T04:58:40;18.50;95.50
2913;DHT22;1466;48.778;9.166;2022-09-09T05:01:11;18.40;95.70
2913;DHT22;1466;48.778;9.166;2022-09-09T05:03:37;18.40;95.80
2913;DHT22;1466;48.778;9.166;2022-09-09T05:06:14;18.40;95.90
2913;DHT22;1466;48.778;9.166;2022-09-09T05:08:42;18.40;95.90
2913;DHT22;1466;48.778;9.166;2022-09-09T05:11:18;18.40;96.10
2913;DHT22;1466;48.778;9.166;2022-09-09T05:13:45;18.40;96.10
2913;DHT22;1466;48.778;9.166;2022-09-09T05:16:11;18.30;96.20
2913;DHT22;1466;48.778;9.166;2022-09-09T05:18:38;18.30;96.40
2913;DHT22;1466;48.778;9.166;2022-09-09T05:21:04;18.30;96.50
2913;DHT22;1466;48.778;9.166;2022-09-09T05:23:30;18.30;96.50
2913;DHT22;1466;48.778;9.166;2022-09-09T05:25:57;18.40;96.60
2913;DHT22;1466;48.778;9.166;2022-09-09T05:28:24;18.40;96.50
2913;DHT22;1466;48.778;9.166;2022-09-09T05:30:58;18.50;96.50
2913;DHT22;1466;48.778;9.166;2022-09-09T05:33:26;18.50;96.50
2913;DHT22;1466;48.778;9.166;2022-09-09T05:35:59;18.50;96.50
2913;DHT22;1466;48.778;9.166;2022-09-09T05:38:25;18.60;96.50
2913;DHT22;1466;48.778;9.166;2022-09-09T05:40:52;18.60;96.40
2913;DHT22;1466;48.778;9.166;2022-09-09T05:43:19;18.60;96.40
2913;DHT22;1466;48.778;9.166;2022-09-09T05:45:46;18.70;96.50
2913;DHT22;1466;48.778;9.166;2022-09-09T05:48:16;18.80;96.40
2913;DHT22;1466;48.778;9.166;2022-09-09T05:50:42;18.90;96.40
2913;DHT22;1466;48.778;9.166;2022-09-09T05:53:09;18.90;96.30
2913;DHT22;1466;48.778;9.166;2022-09-09T05:55:35;19.00;96.20
2913;DHT22;1466;48.778;9.166;2022-09-09T05:58:01;19.10;96.20
2913;DHT22;1466;48.778;9.166;2022-09-09T06:00:27;19.10;96.20
2913;DHT22;1466;48.778;9.166;2022-09-09T06:02:52;19.20;96.20
2913;DHT22;1466;48.778;9.166;2022-09-09T06:05:19;19.20;96.10
2913;DHT22;1466;48.778;9.166;2022-09-09T06:07:45;19.20;96.10
2913;DHT22;1466;48.778;9.166;2022-09-09T06:10:11;19.30;96.40
2913;DHT22;1466;48.778;9.166;2022-09-09T06:12:39;19.30;96.00
2913;DHT22;1466;48.778;9.166;2022-09-09T06:15:05;19.40;96.00
2913;DHT22;1466;48.778;9.166;2022-09-09T06:17:31;19.40;96.00
2913;DHT22;1466;48.778;9.166;2022-09-09T06:19:56;19.40;95.90
2913;DHT22;1466;48.778;9.166;2022-09-09T06:22:22;19.40;95.90
2913;DHT22;1466;48.778;9.166;2022-09-09T06:24:48;19.40;96.00
2913;DHT22;1466;48.778;9.166;2022-09-09T06:27:13;19.40;95.90
2913;DHT22;1466;48.778;9.166;2022-09-09T06:29:39;19.50;96.00
2913;DHT22;1466;48.778;9.166;2022-09-09T06:32:04;19.40;96.00
2913;DHT22;1466;48.778;9.166;2022-09-09T06:34:30;19.50;96.00
2913;DHT22;1466;48.778;9.166;2022-09-09T06:36:56;19.50;96.00
2913;DHT22;1466;48.778;9.166;2022-09-09T06:39:23;19.60;96.10
2913;DHT22;1466;48.778;9.166;2022-09-09T06:41:49;19.60;96.10
2913;DHT22;1466;48.778;9.166;2022-09-09T06:44:15;19.70;96.00
2913;DHT22;1466;48.778;9.166;2022-09-09T06:46:41;19.80;95.90
2913;DHT22;1466;48.778;9.166;2022-09-09T06:49:08;19.80;95.90
2913;DHT22;1466;48.778;9.166;2022-09-09T06:51:35;19.90;95.90
2913;DHT22;1466;48.778;9.166;2022-09-09T06:54:02;19.90;95.80
2913;DHT22;1466;48.778;9.166;2022-09-09T06:56:33;19.90;95.80
2913;DHT22;1466;48.778;9.166;2022-09-09T06:59:02;19.90;95.90
2913;DHT22;1466;48.778;9.166;2022-09-09T07:01:31;19.90;95.90
2913;DHT22;1466;48.778;9.166;2022-09-09T07:03:58;20.00;95.90
2913;DHT22;1466;48.778;9.166;2022-09-09T07:06:35;20.00;95.90
2913;DHT22;1466;48.778;9.166;2022-09-09T07:09:04;20.10;95.90
2913;DHT22;1466;48.778;9.166;2022-09-09T07:11:32;20.20;95.90
2913;DHT22;1466;48.778;9.166;2022-09-09T07:13:59;20.20;95.70
2913;DHT22;1466;48.778;9.166;2022-09-09T07:16:26;20.30;95.80
2913;DHT22;1466;48.778;9.166;2022-09-09T07:18:53;20.40;95.70
2913;DHT22;1466;48.778;9.166;2022-09-09T07:21:23;20.40;95.60
2913;DHT22;1466;48.778;9.166;2022-09-09T07:23:50;20.50;95.60
2913;DHT22;1466;48.778;9.166;2022-09-09T07:26:18;20.50;95.60
2913;DHT22;1466;48.778;9.166;2022-09-09T07:28:45;20.60;95.50
2913;DHT22;1466;48.778;9.166;2022-09-09T07:31:18;20.80;95.40
2913;DHT22;1466;48.778;9.166;2022-09-09T07:33:46;20.90;95.20
2913;DHT22;1466;48.778;9.166;2022-09-09T07:38:45;20.90;95.00
2913;DHT22;1466;48.778;9.166;2022-09-09T07:41:13;21.00;95.00
2913;DHT22;1466;48.778;9.166;2022-09-09T07:43:40;21.00;94.90
2913;DHT22;1466;48.778;9.166;2022-09-09T07:46:07;21.20;94.90
2913;DHT22;1466;48.778;9.166;2022-09-09T07:48:33;21.30;94.60
2913;DHT22;1466;48.778;9.166;2022-09-09T07:51:09;21.30;94.60
2913;DHT22;1466;48.778;9.166;2022-09-09T07:53:37;21.40;94.60
2913;DHT22;1466;48.778;9.166;2022-09-09T07:56:05;21.30;94.30
2913;DHT22;1466;48.778;9.166;2022-09-09T07:58:32;21.10;94.40
2913;DHT22;1466;48.778;9.166;2022-09-09T08:00:58;21.10;94.60
2913;DHT22;1466;48.778;9.166;2022-09-09T08:03:24;21.10;94.60
2913;DHT22;1466;48.778;9.166;2022-09-09T08:05:49;21.10;94.60
2913;DHT22;1466;48.778;9.166;2022-09-09T08:08:15;21.20;94.70
2913;DHT22;1466;48.778;9.166;2022-09-09T08:10:42;21.30;94.70
2913;DHT22;1466;48.778;9.166;2022-09-09T08:13:09;21.50;94.60
2913;DHT22;1466;48.778;9.166;2022-09-09T08:15:34;21.60;94.50
2913;DHT22;1466;48.778;9.166;2022-09-09T08:18:00;21.70;94.10
2913;DHT22;1466;48.778;9.166;2022-09-09T08:20:25;21.70;93.90
2913;DHT22;1466;48.778;9.166;2022-09-09T08:22:51;21.70;93.80
2913;DHT22;1466;48.778;9.166;2022-09-09T08:25:17;21.70;93.80
2913;DHT22;1466;48.778;9.166;2022-09-09T08:27:42;21.80;93.80
2913;DHT22;1466;48.778;9.166;2022-09-09T08:30:08;21.90;93.70
2913;DHT22;1466;48.778;9.166;2022-09-09T08:32:34;21.90;93.40
2913;DHT22;1466;48.778;9.166;2022-09-09T08:35:00;21.90;93.30
2913;DHT22;1466;48.778;9.166;2022-09-09T08:37:26;22.10;93.20
2913;DHT22;1466;48.778;9.166;2022-09-09T08:39:51;22.30;93.00
2913;DHT22;1466;48.778;9.166;2022-09-09T08:42:34;22.30;92.80
2913;DHT22;1466;48.778;9.166;2022-09-09T08:45:46;22.30;92.60
2913;DHT22;1466;48.778;9.166;2022-09-09T08:50:44;22.40;92.60
2913;DHT22;1466;48.778;9.166;2022-09-09T08:53:22;22.50;92.60
2913;DHT22;1466;48.778;9.166;2022-09-09T08:55:55;22.60;92.40
2913;DHT22;1466;48.778;9.166;2022-09-09T08:58:28;22.70;92.30
2913;DHT22;1466;48.778;9.166;2022-09-09T09:06:31;22.70;91.50
2913;DHT22;1466;48.778;9.166;2022-09-09T09:09:52;22.70;91.10
2913;DHT22;1466;48.778;9.166;2022-09-09T09:11:50;22.70;90.90
2913;DHT22;1466;48.778;9.166;2022-09-09T09:14:25;22.70;90.80
2913;DHT22;1466;48.778;9.166;2022-09-09T09:17:04;22.60;89.90
2913;DHT22;1466;48.778;9.166;2022-09-09T09:19:33;22.60;89.70
2913;DHT22;1466;48.778;9.166;2022-09-09T09:22:18;22.60;90.00
2913;DHT22;1466;48.778;9.166;2022-09-09T09:25:02;22.60;90.10
2913;DHT22;1466;48.778;9.166;2022-09-09T09:27:46;22.50;90.30
2913;DHT22;1466;48.778;9.166;2022-09-09T09:30:15;22.40;91.40
2913;DHT22;1466;48.778;9.166;2022-09-09T09:32:54;22.30;92.20
2913;DHT22;1466;48.778;9.166;2022-09-09T09:35:20;22.10;93.00
2913;DHT22;1466;48.778;9.166;2022-09-09T09:37:47;22.00;93.00
2913;DHT22;1466;48.778;9.166;2022-09-09T09:40:21;21.90;93.00
2913;DHT22;1466;48.778;9.166;2022-09-09T09:42:58;21.90;92.70
2913;DHT22;1466;48.778;9.166;2022-09-09T09:45:43;22.30;92.20
2913;DHT22;1466;48.778;9.166;2022-09-09T09:48:14;22.50;91.20
2913;DHT22;1466;48.778;9.166;2022-09-09T09:53:21;23.00;89.90
2913;DHT22;1466;48.778;9.166;2022-09-09T09:55:59;23.20;89.90
2913;DHT22;1466;48.778;9.166;2022-09-09T09:58:27;23.40;89.00
2913;DHT22;1466;48.778;9.166;2022-09-09T10:00:56;23.50;87.70
2913;DHT22;1466;48.778;9.166;2022-09-09T10:03:32;23.40;86.90
2913;DHT22;1466;48.778;9.166;2022-09-09T10:05:58;23.30;87.10
2913;DHT22;1466;48.778;9.166;2022-09-09T10:08:25;23.20;87.10
2913;DHT22;1466;48.778;9.166;2022-09-09T10:22:26;23.00;89.90
2913;DHT22;1466;48.778;9.166;2022-09-09T10:30:22;23.40;89.80
2913;DHT22;1466;48.778;9.166;2022-09-09T10:38:13;23.80;89.30
2913;DHT22;1466;48.778;9.166;2022-09-09T10:49:10;24.60;88.30
2913;DHT22;1466;48.778;9.166;2022-09-09T11:00:06;24.70;88.60
2913;DHT22;1466;48.778;9.166;2022-09-09T11:02:34;24.80;88.90
2913;DHT22;1466;48.778;9.166;2022-09-09T11:05:12;25.00;88.50
2913;DHT22;1466;48.778;9.166;2022-09-09T11:07:44;25.20;88.20
2913;DHT22;1466;48.778;9.166;2022-09-09T11:10:21;25.30;87.60
2913;DHT22;1466;48.778;9.166;2022-09-09T11:12:50;25.10;87.00
2913;DHT22;1466;48.778;9.166;2022-09-09T11:15:22;25.00;87.10
2913;DHT22;1466;48.778;9.166;2022-09-09T11:17:59;24.80;86.70
2913;DHT22;1466;48.778;9.166;2022-09-09T11:20:26;24.40;82.10
2913;DHT22;1466;48.778;9.166;2022-09-09T11:23:15;24.00;82.20
2913;DHT22;1466;48.778;9.166;2022-09-09T11:25:48;23.60;81.80
2913;DHT22;1466;48.778;9.166;2022-09-09T11:36:54;22.60;82.40
2913;DHT22;1466;48.778;9.166;2022-09-09T11:42:18;22.50;85.10
2913;DHT22;1466;48.778;9.166;2022-09-09T11:44:44;22.40;85.40
2913;DHT22;1466;48.778;9.166;2022-09-09T11:47:28;22.40;86.10
2913;DHT22;1466;48.778;9.166;2022-09-09T11:52:43;22.40;86.10
2913;DHT22;1466;48.778;9.166;2022-09-09T11:55:27;22.40;85.90
2913;DHT22;1466;48.778;9.166;2022-09-09T12:00:45;22.40;85.90
2913;DHT22;1466;48.778;9.166;2022-09-09T12:03:47;22.50;86.10
2913;DHT22;1466;48.778;9.166;2022-09-09T12:08:50;22.90;85.10
2913;DHT22;1466;48.778;9.166;2022-09-09T12:11:27;23.20;84.30
2913;DHT22;1466;48.778;9.166;2022-09-09T12:13:59;23.30;83.40
2913;DHT22;1466;48.778;9.166;2022-09-09T12:16:36;23.30;82.90
2913;DHT22;1466;48.778;9.166;2022-09-09T12:19:19;23.30;82.60
2913;DHT22;1466;48.778;9.166;2022-09-09T12:22:04;23.30;82.40
2913;DHT22;1466;48.778;9.166;2022-09-09T12:24:57;23.40;81.90
2913;DHT22;1466;48.778;9.166;2022-09-09T12:27:31;23.40;81.40
2913;DHT22;1466;48.778;9.166;2022-09-09T12:30:14;23.30;81.10
2913;DHT22;1466;48.778;9.166;2022-09-09T12:32:40;23.00;79.80
2913;DHT22;1466;48.778;9.166;2022-09-09T12:35:30;23.00;80.30
2913;DHT22;1466;48.778;9.166;2022-09-09T12:38:02;23.00;80.10
2913;DHT22;1466;48.778;9.166;2022-09-09T12:40:36;23.10;78.90
2913;DHT22;1466;48.778;9.166;2022-09-09T12:43:15;23.10;78.30
2913;DHT22;1466;48.778;9.166;2022-09-09T12:45:42;23.10;78.00
2913;DHT22;1466;48.778;9.166;2022-09-09T12:48:14;23.10;78.50
2913;DHT22;1466;48.778;9.166;2022-09-09T12:50:48;23.20;78.80
2913;DHT22;1466;48.778;9.166;2022-09-09T12:53:27;23.10;78.90
2913;DHT22;1466;48.778;9.166;2022-09-09T12:56:24;23.10;79.30
2913;DHT22;1466;48.778;9.166;2022-09-09T12:58:52;23.10;79.90
2913;DHT22;1466;48.778;9.166;2022-09-09T13:01:26;23.10;80.20
2913;DHT22;1466;48.778;9.166;2022-09-09T13:03:52;23.10;80.70
2913;DHT22;1466;48.778;9.166;2022-09-09T13:06:24;23.20;80.00
2913;DHT22;1466;48.778;9.166;2022-09-09T13:08:51;23.20;80.30
2913;DHT22;1466;48.778;9.166;2022-09-09T13:11:21;23.30;80.00
2913;DHT22;1466;48.778;9.166;2022-09-09T13:13:56;23.40;79.70
2913;DHT22;1466;48.778;9.166;2022-09-09T13:16:26;23.50;79.70
2913;DHT22;1466;48.778;9.166;2022-09-09T13:19:01;23.70;80.00
2913;DHT22;1466;48.778;9.166;2022-09-09T13:21:35;23.80;79.80
2913;DHT22;1466;48.778;9.166;2022-09-09T13:24:01;23.90;79.90
2913;DHT22;1466;48.778;9.166;2022-09-09T13:26:31;24.00;79.50
2913;DHT22;1466;48.778;9.166;2022-09-09T13:29:17;24.10;79.50
2913;DHT22;1466;48.778;9.166;2022-09-09T13:31:43;24.10;78.80
2913;DHT22;1466;48.778;9.166;2022-09-09T13:34:32;24.10;79.90
2913;DHT22;1466;48.778;9.166;2022-09-09T13:37:07;24.20;79.10
2913;DHT22;1466;48.778;9.166;2022-09-09T13:39:51;24.20;78.50
2913;DHT22;1466;48.778;9.166;2022-09-09T13:42:30;24.30;77.60
2913;DHT22;1466;48.778;9.166;2022-09-09T13:44:58;24.20;77.00
2913;DHT22;1466;48.778;9.166;2022-09-09T13:47:35;24.30;75.80
2913;DHT22;1466;48.778;9.166;2022-09-09T13:52:52;24.20;74.40
2913;DHT22;1466;48.778;9.166;2022-09-09T13:55:20;24.20;74.50
2913;DHT22;1466;48.778;9.166;2022-09-09T13:57:51;24.30;74.10
2913;DHT22;1466;48.778;9.166;2022-09-09T14:00:17;24.50;74.20
2913;DHT22;1466;48.778;9.166;2022-09-09T14:02:43;24.60;74.20
2913;DHT22;1466;48.778;9.166;2022-09-09T14:05:09;24.80;73.80
2913;DHT22;1466;48.778;9.166;2022-09-09T14:07:37;24.70;73.50
2913;DHT22;1466;48.778;9.166;2022-09-09T14:10:04;24.70;73.90
2913;DHT22;1466;48.778;9.166;2022-09-09T14:12:30;24.60;73.80
2913;DHT22;1466;48.778;9.166;2022-09-09T14:14:56;24.70;74.20
2913;DHT22;1466;48.778;9.166;2022-09-09T14:17:21;24.80;73.60
2913;DHT22;1466;48.778;9.166;2022-09-09T14:19:47;24.70;71.60
2913;DHT22;1466;48.778;9.166;2022-09-09T14:22:13;24.60;71.50
2913;DHT22;1466;48.778;9.166;2022-09-09T14:24:39;24.40;72.20
2913;DHT22;1466;48.778;9.166;2022-09-09T14:27:04;24.20;72.60
2913;DHT22;1466;48.778;9.166;2022-09-09T14:29:30;24.20;73.20
2913;DHT22;1466;48.778;9.166;2022-09-09T14:31:55;24.10;73.20
2913;DHT22;1466;48.778;9.166;2022-09-09T14:34:21;24.00;73.50
2913;DHT22;1466;48.778;9.166;2022-09-09T14:36:46;24.00;73.60
2913;DHT22;1466;48.778;9.166;2022-09-09T14:39:12;24.10;73.30
2913;DHT22;1466;48.778;9.166;2022-09-09T14:41:38;24.10;73.00
2913;DHT22;1466;48.778;9.166;2022-09-09T14:44:04;24.10;72.70
2913;DHT22;1466;48.778;9.166;2022-09-09T14:46:29;24.10;72.70
2913;DHT22;1466;48.778;9.166;2022-09-09T14:48:55;24.20;72.90
2913;DHT22;1466;48.778;9.166;2022-09-09T14:51:23;24.30;72.40
2913;DHT22;1466;48.778;9.166;2022-09-09T14:53:52;24.40;71.70
2913;DHT22;1466;48.778;9.166;2022-09-09T14:56:24;24.30;72.00
2913;DHT22;1466;48.778;9.166;2022-09-09T14:58:50;24.40;72.20
2913;DHT22;1466;48.778;9.166;2022-09-09T15:01:18;24.40;71.60
2913;DHT22;1466;48.778;9.166;2022-09-09T15:03:52;24.40;71.20
2913;DHT22;1466;48.778;9.166;2022-09-09T15:06:19;24.40;70.80
2913;DHT22;1466;48.778;9.166;2022-09-09T15:08:46;24.40;71.00
2913;DHT22;1466;48.778;9.166;2022-09-09T15:11:14;24.50;71.00
2913;DHT22;1466;48.778;9.166;2022-09-09T15:13:41;24.40;70.80
2913;DHT22;1466;48.778;9.166;2022-09-09T15:18:38;24.20;71.00
2913;DHT22;1466;48.778;9.166;2022-09-09T15:21:12;24.10;70.90
2913;DHT22;1466;48.778;9.166;2022-09-09T15:23:38;24.00;71.40
2913;DHT22;1466;48.778;9.166;2022-09-09T15:26:05;24.00;71.50
2913;DHT22;1466;48.778;9.166;2022-09-09T15:28:35;23.90;71.70
2913;DHT22;1466;48.778;9.166;2022-09-09T15:31:27;23.90;71.80
2913;DHT22;1466;48.778;9.166;2022-09-09T15:36:21;23.80;72.00
2913;DHT22;1466;48.778;9.166;2022-09-09T15:38:47;23.80;72.50
2913;DHT22;1466;48.778;9.166;2022-09-09T15:41:13;23.80;72.40
2913;DHT22;1466;48.778;9.166;2022-09-09T15:43:46;23.70;72.60
2913;DHT22;1466;48.778;9.166;2022-09-09T15:48:49;23.70;73.10
2913;DHT22;1466;48.778;9.166;2022-09-09T15:51:16;23.70;73.50
2913;DHT22;1466;48.778;9.166;2022-09-09T15:53:42;23.60;73.30
2913;DHT22;1466;48.778;9.166;2022-09-09T15:56:08;23.50;73.20
2913;DHT22;1466;48.778;9.166;2022-09-09T15:58:35;23.50;73.30
2913;DHT22;1466;48.778;9.166;2022-09-09T16:01:05;23.40;73.30
2913;DHT22;1466;48.778;9.166;2022-09-09T16:03:40;23.40;73.10
2913;DHT22;1466;48.778;9.166;2022-09-09T16:06:12;23.30;73.30
2913;DHT22;1466;48.778;9.166;2022-09-09T16:08:41;23.40;73.40
2913;DHT22;1466;48.778;9.166;2022-09-09T16:11:19;23.30;72.90
2913;DHT22;1466;48.778;9.166;2022-09-09T16:13:46;23.30;72.80
2913;DHT22;1466;48.778;9.166;2022-09-09T16:16:18;23.20;73.40
2913;DHT22;1466;48.778;9.166;2022-09-09T16:18:56;23.20;72.60
2913;DHT22;1466;48.778;9.166;2022-09-09T16:23:54;23.20;72.80
2913;DHT22;1466;48.778;9.166;2022-09-09T16:26:20;23.20;72.80
2913;DHT22;1466;48.778;9.166;2022-09-09T16:28:46;23.10;73.10
2913;DHT22;1466;48.778;9.166;2022-09-09T16:31:21;23.10;73.50
2913;DHT22;1466;48.778;9.166;2022-09-09T16:33:47;23.10;73.70
2913;DHT22;1466;48.778;9.166;2022-09-09T16:36:15;23.00;74.30
2913;DHT22;1466;48.778;9.166;2022-09-09T16:38:41;22.90;74.80
2913;DHT22;1466;48.778;9.166;2022-09-09T16:41:10;22.80;76.20
2913;DHT22;1466;48.778;9.166;2022-09-09T16:43:36;22.50;76.50
2913;DHT22;1466;48.778;9.166;2022-09-09T16:46:03;22.20;77.30
2913;DHT22;1466;48.778;9.166;2022-09-09T16:48:33;22.10;77.90
2913;DHT22;1466;48.778;9.166;2022-09-09T16:51:06;21.90;78.10
2913;DHT22;1466;48.778;9.166;2022-09-09T16:53:32;21.90;77.60
2913;DHT22;1466;48.778;9.166;2022-09-09T16:55:58;21.80;77.90
2913;DHT22;1466;48.778;9.166;2022-09-09T16:58:23;21.70;79.10
2913;DHT22;1466;48.778;9.166;2022-09-09T17:00:49;21.60;79.60
2913;DHT22;1466;48.778;9.166;2022-09-09T17:03:16;21.70;80.50
2913;DHT22;1466;48.778;9.166;2022-09-09T17:05:42;21.70;80.50
2913;DHT22;1466;48.778;9.166;2022-09-09T17:08:09;21.60;79.80
2913;DHT22;1466;48.778;9.166;2022-09-09T17:10:40;21.50;80.00
2913;DHT22;1466;48.778;9.166;2022-09-09T17:13:06;21.50;80.20
2913;DHT22;1466;48.778;9.166;2022-09-09T17:15:32;21.50;80.40
2913;DHT22;1466;48.778;9.166;2022-09-09T17:17:57;21.50;80.50
2913;DHT22;1466;48.778;9.166;2022-09-09T17:20:28;21.40;80.50
2913;DHT22;1466;48.778;9.166;2022-09-09T17:22:54;21.30;80.70
2913;DHT22;1466;48.778;9.166;2022-09-09T17:25:24;21.20;81.10
2913;DHT22;1466;48.778;9.166;2022-09-09T17:27:50;21.10;81.30
2913;DHT22;1466;48.778;9.166;2022-09-09T17:30:16;21.10;81.40
2913;DHT22;1466;48.778;9.166;2022-09-09T17:32:42;21.20;81.60
2913;DHT22;1466;48.778;9.166;2022-09-09T17:35:08;21.20;81.80
2913;DHT22;1466;48.778;9.166;2022-09-09T17:37:33;21.10;82.20
2913;DHT22;1466;48.778;9.166;2022-09-09T17:39:59;21.10;82.60
2913;DHT22;1466;48.778;9.166;2022-09-09T17:42:25;21.00;83.00
2913;DHT22;1466;48.778;9.166;2022-09-09T17:44:51;20.90;83.30
2913;DHT22;1466;48.778;9.166;2022-09-09T17:47:16;20.90;83.50
2913;DHT22;1466;48.778;9.166;2022-09-09T17:49:42;20.90;84.20
2913;DHT22;1466;48.778;9.166;2022-09-09T17:52:07;20.80;84.60
2913;DHT22;1466;48.778;9.166;2022-09-09T17:54:33;20.70;85.30
2913;DHT22;1466;48.778;9.166;2022-09-09T17:56:58;20.70;85.40
2913;DHT22;1466;48.778;9.166;2022-09-09T17:59:24;20.60;85.80
2913;DHT22;1466;48.778;9.166;2022-09-09T18:01:51;20.60;86.10
2913;DHT22;1466;48.778;9.166;2022-09-09T18:04:20;20.60;86.40
2913;DHT22;1466;48.778;9.166;2022-09-09T18:06:48;20.60;86.50
2913;DHT22;1466;48.778;9.166;2022-09-09T18:09:19;20.60;86.60
2913;DHT22;1466;48.778;9.166;2022-09-09T18:11:48;20.60;86.80
2913;DHT22;1466;48.778;9.166;2022-09-09T18:14:17;20.60;87.00
2913;DHT22;1466;48.778;9.166;2022-09-09T18:16:42;20.60;87.10
2913;DHT22;1466;48.778;9.166;2022-09-09T18:19:11;20.70;87.20
2913;DHT22;1466;48.778;9.166;2022-09-09T18:21:38;20.70;87.30